createdAt,value
2019-03-17T00:01:58.077Z,3.03
2019-03-17T00:06:59.734Z,2.23
2019-03-17T00:12:01.431Z,1.50
2019-03-17T00:17:03.288Z,3.17
2019-03-17T00:22:04.960Z,1.80
2019-03-17T00:27:06.644Z,1.93
2019-03-17T00:32:08.201Z,1.30
2019-03-17T00:37:09.929Z,1.27
2019-03-17T00:42:11.514Z,1.87
2019-03-17T00:47:13.241Z,1.43
2019-03-17T00:52:14.857Z,1.87
2019-03-17T00:57:18.818Z,2.30
2019-03-17T01:02:20.416Z,1.40
2019-03-17T01:07:22.064Z,1.23
2019-03-17T01:12:23.672Z,1.00
2019-03-17T01:17:25.289Z,1.00
2019-03-17T01:22:26.838Z,1.00
2019-03-17T01:27:28.397Z,1.57
2019-03-17T01:32:29.987Z,1.57
2019-03-17T01:37:31.549Z,1.27
2019-03-17T01:42:35.110Z,1.67
2019-03-17T01:47:36.937Z,1.33
2019-03-17T01:52:38.513Z,2.03
2019-03-17T01:57:40.103Z,1.37
2019-03-17T02:02:41.652Z,2.13
2019-03-17T02:07:43.221Z,1.73
2019-03-17T02:12:44.913Z,1.70
2019-03-17T02:17:46.538Z,1.47
2019-03-17T02:22:48.108Z,1.80
2019-03-17T02:27:49.705Z,0.70
2019-03-17T02:32:51.277Z,1.40
2019-03-17T02:37:52.827Z,1.40
2019-03-17T02:42:54.392Z,0.70
2019-03-17T02:47:56.062Z,0.83
2019-03-17T02:52:57.672Z,2.43
2019-03-17T02:57:59.231Z,0.77
2019-03-17T03:03:00.805Z,1.53
2019-03-17T03:08:02.576Z,1.07
2019-03-17T03:13:04.177Z,1.43
2019-03-17T03:18:05.754Z,1.20
2019-03-17T03:23:07.303Z,1.50
2019-03-17T03:28:08.851Z,0.90
2019-03-17T03:33:10.523Z,1.00
2019-03-17T03:38:12.220Z,2.40
2019-03-17T03:43:13.755Z,1.20
2019-03-17T03:48:15.332Z,1.00
2019-03-17T03:53:16.894Z,0.80
2019-03-17T03:58:18.480Z,0.63
2019-03-17T04:03:20.023Z,0.60
2019-03-17T04:08:21.603Z,2.60
2019-03-17T04:13:23.220Z,0.83
2019-03-17T04:18:24.830Z,1.20
2019-03-17T04:23:26.418Z,0.83
2019-03-17T04:28:28.092Z,2.17
2019-03-17T04:33:29.670Z,0.70
2019-03-17T04:38:31.238Z,0.50
2019-03-17T04:43:32.882Z,0.90
2019-03-17T04:48:34.431Z,1.33
2019-03-17T04:53:35.997Z,0.70
2019-03-17T04:58:37.572Z,1.40
2019-03-17T05:03:39.140Z,1.20
2019-03-17T05:08:40.720Z,0.90
2019-03-17T05:13:42.366Z,1.10
2019-03-17T05:18:44.025Z,0.97
2019-03-17T05:23:45.587Z,0.80
2019-03-17T05:28:47.137Z,1.40
2019-03-17T05:33:48.695Z,1.47
2019-03-17T05:38:50.346Z,1.37
2019-03-17T05:43:51.907Z,1.17
2019-03-17T05:48:53.453Z,0.80
2019-03-17T05:53:55.099Z,0.90
2019-03-17T05:58:56.656Z,0.90
2019-03-17T06:03:58.239Z,0.90
2019-03-17T06:08:59.888Z,1.20
2019-03-17T06:14:01.448Z,1.07
2019-03-17T06:19:03.130Z,1.03
2019-03-17T06:24:04.800Z,1.13
2019-03-17T06:29:06.479Z,1.00
2019-03-17T06:34:08.025Z,0.87
2019-03-17T06:39:09.591Z,1.20
2019-03-17T06:44:11.141Z,2.10
2019-03-17T06:49:12.706Z,1.30
2019-03-17T06:54:14.631Z,2.93
2019-03-17T06:59:17.622Z,1.00
2019-03-17T07:04:19.441Z,4.30
2019-03-17T07:09:21.032Z,1.47
2019-03-17T07:14:22.594Z,0.97
2019-03-17T07:19:24.148Z,2.30
2019-03-17T07:24:25.707Z,1.00
2019-03-17T07:29:27.353Z,0.83
2019-03-17T07:34:28.931Z,2.20
2019-03-17T07:39:30.589Z,2.23
2019-03-17T07:44:32.139Z,2.40
2019-03-17T07:49:33.702Z,3.23
2019-03-17T07:54:35.346Z,1.10
2019-03-17T07:59:36.928Z,2.73
2019-03-17T08:04:43.791Z,2.10
2019-03-17T08:09:42.051Z,1.10
2019-03-17T08:14:43.609Z,1.93
2019-03-17T08:19:45.192Z,2.20
2019-03-17T08:24:46.858Z,2.57
2019-03-17T08:29:48.504Z,1.20
2019-03-17T08:34:50.107Z,2.20
2019-03-17T08:39:51.640Z,1.77
2019-03-17T08:44:53.196Z,0.87
2019-03-17T08:49:54.773Z,1.20
2019-03-17T08:54:56.444Z,1.10
2019-03-17T08:59:58.036Z,1.17
2019-03-17T09:04:59.606Z,2.03
2019-03-17T09:10:01.361Z,1.80
2019-03-17T09:15:03.344Z,1.60
2019-03-17T09:20:05.132Z,2.60
2019-03-17T09:25:07.732Z,1.50
2019-03-17T09:30:11.522Z,2.83
2019-03-17T09:35:13.194Z,2.10
2019-03-17T09:40:14.883Z,5.63
2019-03-17T09:45:16.431Z,2.33
2019-03-17T09:50:18.144Z,3.03
2019-03-17T09:55:19.694Z,3.07
2019-03-17T10:00:21.263Z,2.03
2019-03-17T10:05:22.894Z,4.00
2019-03-17T10:10:24.440Z,4.57
2019-03-17T10:15:26.099Z,2.33
2019-03-17T10:20:27.732Z,4.87
2019-03-17T10:25:29.344Z,6.63
2019-03-17T10:30:30.903Z,6.50
2019-03-17T10:35:32.484Z,2.33
2019-03-17T10:40:34.033Z,8.27
2019-03-17T10:45:35.627Z,9.00
2019-03-17T10:50:49.083Z,7.10
2019-03-17T10:55:40.662Z,7.20
2019-03-17T11:00:42.215Z,6.70
2019-03-17T11:05:43.758Z,3.77
2019-03-17T11:10:45.291Z,4.67
2019-03-17T11:15:46.854Z,5.73
2019-03-17T11:20:48.404Z,6.23
2019-03-17T11:25:49.963Z,7.60
2019-03-17T11:30:56.831Z,8.60
2019-03-17T11:35:58.380Z,12.17
2019-03-17T11:40:59.953Z,7.53
2019-03-17T11:46:01.727Z,4.10
2019-03-17T11:51:03.381Z,6.30
2019-03-17T11:56:05.097Z,6.80
2019-03-17T12:01:06.741Z,5.17
2019-03-17T12:06:08.459Z,8.07
2019-03-17T12:11:10.213Z,12.40
2019-03-17T12:16:11.941Z,6.73
2019-03-17T12:21:13.606Z,5.43
2019-03-17T12:26:17.170Z,4.50
2019-03-17T12:31:18.860Z,5.33
2019-03-17T12:36:20.936Z,7.70
2019-03-17T12:41:22.528Z,4.93
2019-03-17T12:46:24.237Z,11.77
2019-03-17T12:51:25.836Z,3.97
2019-03-17T12:56:27.441Z,4.80
2019-03-17T13:01:29.030Z,3.27
2019-03-17T13:06:30.643Z,3.83
2019-03-17T13:11:32.891Z,1.20
2019-03-17T13:16:34.647Z,1.10
2019-03-17T13:21:39.116Z,2.40
2019-03-17T13:26:40.722Z,3.40
2019-03-17T13:31:42.374Z,2.20
2019-03-17T13:36:46.595Z,2.87
2019-03-17T13:41:47.570Z,1.53
2019-03-17T13:46:49.147Z,4.93
2019-03-17T13:51:50.725Z,2.83
2019-03-17T13:56:52.269Z,0.87
2019-03-17T14:01:53.860Z,2.77
2019-03-17T14:06:55.526Z,1.57
2019-03-17T14:11:57.212Z,1.63
2019-03-17T14:16:58.886Z,1.30
2019-03-17T14:22:00.558Z,0.80
2019-03-17T14:27:02.117Z,0.33
2019-03-17T14:32:03.899Z,0.77
2019-03-17T14:37:05.602Z,0.40
2019-03-17T14:42:07.173Z,0.50
2019-03-17T14:47:08.756Z,0.87
2019-03-17T14:52:10.478Z,0.43
2019-03-17T14:57:12.173Z,0.90
2019-03-17T15:02:13.788Z,0.60
2019-03-17T15:07:15.452Z,2.07
2019-03-17T15:12:17.030Z,1.47
2019-03-17T15:17:18.597Z,1.07
2019-03-17T15:22:20.208Z,2.13
2019-03-17T15:27:21.900Z,0.57
2019-03-17T15:32:23.454Z,0.73
2019-03-17T15:37:25.155Z,0.60
2019-03-17T15:42:26.843Z,1.40
2019-03-17T15:47:28.753Z,0.77
2019-03-17T15:52:30.453Z,0.50
2019-03-17T15:57:32.044Z,0.50
2019-03-17T16:02:33.702Z,2.33
2019-03-17T16:07:42.218Z,0.37
2019-03-17T16:12:39.012Z,1.67
2019-03-17T16:17:40.583Z,0.80
2019-03-17T16:22:42.273Z,1.43
2019-03-17T16:27:44.052Z,1.53
2019-03-17T16:32:45.743Z,1.30
2019-03-17T16:37:47.420Z,0.40
2019-03-17T16:42:49.024Z,0.93
2019-03-17T16:47:50.873Z,1.10
2019-03-17T16:52:52.914Z,1.30
2019-03-17T16:57:54.595Z,1.10
2019-03-17T17:02:56.378Z,0.53
2019-03-17T17:07:57.983Z,0.50
2019-03-17T17:12:59.625Z,1.00
2019-03-17T17:18:01.230Z,0.60
2019-03-17T17:23:03.177Z,0.50
2019-03-17T17:28:04.902Z,0.97
2019-03-17T17:33:06.808Z,0.80
2019-03-17T17:38:08.514Z,0.63
2019-03-17T17:43:10.242Z,1.40
2019-03-17T17:48:11.899Z,1.57
2019-03-17T17:53:13.598Z,1.70
2019-03-17T17:58:15.214Z,2.37
2019-03-17T18:03:16.964Z,4.10
2019-03-17T18:08:18.543Z,10.70
2019-03-17T18:13:20.318Z,5.27
2019-03-17T18:18:21.985Z,2.57
2019-03-17T18:23:23.763Z,3.23
2019-03-17T18:28:25.563Z,3.23
2019-03-17T18:33:27.926Z,3.73
2019-03-17T18:38:30.959Z,1.47
2019-03-17T18:43:33.866Z,1.13
2019-03-17T18:48:35.458Z,4.33
2019-03-17T18:53:37.071Z,1.37
2019-03-17T18:58:38.848Z,0.90
2019-03-17T19:03:40.449Z,2.27
2019-03-17T19:08:42.053Z,1.17
2019-03-17T19:13:43.620Z,1.70
2019-03-17T19:18:45.186Z,0.73
2019-03-17T19:23:47.032Z,1.50
2019-03-17T19:28:48.699Z,0.80
2019-03-17T19:33:50.419Z,1.03
2019-03-17T19:38:52.017Z,1.73
2019-03-17T19:43:53.604Z,2.07
2019-03-17T19:48:55.176Z,1.43
2019-03-17T19:53:56.785Z,2.77
2019-03-17T19:58:59.189Z,2.60
2019-03-17T20:04:00.756Z,2.57
2019-03-17T20:09:05.794Z,1.77
2019-03-17T20:14:07.360Z,1.00
2019-03-17T20:19:09.043Z,1.20
2019-03-17T20:24:11.817Z,1.57
2019-03-17T20:29:13.411Z,1.20
2019-03-17T20:34:15.018Z,1.23
2019-03-17T20:39:16.574Z,2.50
2019-03-17T20:44:18.138Z,1.47
2019-03-17T20:49:19.715Z,1.07
2019-03-17T20:54:21.276Z,1.30
2019-03-17T20:59:23.013Z,1.60
2019-03-17T21:04:24.652Z,1.40
2019-03-17T21:09:26.250Z,3.27
2019-03-17T21:14:27.819Z,1.10
2019-03-17T21:19:29.414Z,0.67
2019-03-17T21:24:31.045Z,1.07
2019-03-17T21:29:32.654Z,0.70
2019-03-17T21:34:34.289Z,1.50
2019-03-17T21:39:35.926Z,2.97
2019-03-17T21:44:37.557Z,3.53
2019-03-17T21:49:39.150Z,1.87
2019-03-17T21:54:40.760Z,2.00
2019-03-17T21:59:42.407Z,1.23
2019-03-17T22:04:44.016Z,1.13
2019-03-17T22:09:45.555Z,1.73
2019-03-17T22:14:47.222Z,0.73
2019-03-17T22:19:48.887Z,0.87
2019-03-17T22:24:50.555Z,1.10
2019-03-17T22:29:52.137Z,1.77
2019-03-17T22:34:53.800Z,2.03
2019-03-17T22:39:55.376Z,2.87
2019-03-17T22:44:57.023Z,0.93
2019-03-17T22:49:58.626Z,1.63
2019-03-17T22:55:00.480Z,0.73
2019-03-17T23:00:03.395Z,1.73
2019-03-17T23:05:05.109Z,3.77
2019-03-17T23:10:07.800Z,1.30
2019-03-17T23:15:09.544Z,0.73
2019-03-17T23:20:11.484Z,2.60
2019-03-17T23:31:34.629Z,1.97
2019-03-17T23:36:36.181Z,1.93
2019-03-17T23:41:37.751Z,2.87
2019-03-17T23:46:39.385Z,1.70
2019-03-17T23:51:40.998Z,2.93
2019-03-17T23:56:42.587Z,2.77
